createdAt,value
2023-03-11T00:01:21.019Z,7.95
2023-03-11T00:03:48.998Z,8.20
2023-03-11T00:06:17.953Z,10.40
2023-03-11T00:08:45.501Z,8.57
2023-03-11T00:11:13.094Z,9.98
2023-03-11T00:13:41.255Z,9.55
2023-03-11T00:16:08.880Z,10.50
2023-03-11T00:18:36.442Z,7.97
2023-03-11T00:21:04.138Z,7.10
2023-03-11T00:23:34.580Z,8.88
2023-03-11T00:26:03.296Z,7.90
2023-03-11T00:28:34.045Z,7.07
2023-03-11T00:31:02.003Z,6.80
2023-03-11T00:33:29.569Z,8.73
2023-03-11T00:35:57.333Z,9.13
2023-03-11T00:38:24.900Z,7.10
2023-03-11T00:40:53.835Z,9.93
2023-03-11T00:43:21.414Z,7.50
2023-03-11T00:45:49.018Z,8.25
2023-03-11T00:48:16.631Z,6.57
2023-03-11T00:50:44.204Z,7.35
2023-03-11T00:53:12.208Z,11.57
2023-03-11T00:55:39.758Z,7.70
2023-03-11T00:58:08.903Z,8.07
2023-03-11T01:00:36.506Z,7.93
2023-03-11T01:03:04.350Z,7.18
2023-03-11T01:05:33.129Z,6.70
2023-03-11T01:08:00.892Z,9.33
2023-03-11T01:10:29.013Z,7.40
2023-03-11T01:12:56.590Z,6.72
2023-03-11T01:15:26.400Z,6.93
2023-03-11T01:17:53.979Z,8.02
2023-03-11T01:20:21.799Z,6.27
2023-03-11T01:22:49.490Z,8.10
2023-03-11T01:25:19.007Z,12.07
2023-03-11T01:27:46.577Z,7.93
2023-03-11T01:30:15.453Z,9.57
2023-03-11T01:32:44.554Z,8.87
2023-03-11T01:35:13.147Z,10.02
2023-03-11T01:37:40.992Z,10.13
2023-03-11T01:40:09.775Z,9.85
2023-03-11T01:42:37.330Z,7.00
2023-03-11T01:45:17.656Z,9.20
2023-03-11T01:47:46.584Z,7.65
2023-03-11T01:50:15.314Z,6.20
2023-03-11T01:52:43.731Z,8.80
2023-03-11T01:55:12.619Z,8.02
2023-03-11T01:57:42.525Z,7.53
2023-03-11T02:00:11.281Z,9.57
2023-03-11T02:02:42.919Z,7.13
2023-03-11T02:05:11.953Z,7.65
2023-03-11T02:07:39.892Z,8.75
2023-03-11T02:10:08.466Z,6.80
2023-03-11T02:12:36.997Z,9.80
2023-03-11T02:15:05.172Z,11.52
2023-03-11T02:17:32.734Z,8.57
2023-03-11T02:20:06.245Z,7.63
2023-03-11T02:22:35.559Z,7.23
2023-03-11T02:25:06.116Z,6.35
2023-03-11T02:27:35.768Z,6.80
2023-03-11T02:30:04.445Z,5.57
2023-03-11T02:32:32.367Z,5.55
2023-03-11T02:34:59.951Z,6.93
2023-03-11T02:37:27.760Z,7.00
2023-03-11T02:39:56.018Z,7.18
2023-03-11T02:42:25.390Z,6.50
2023-03-11T02:44:56.830Z,8.25
2023-03-11T02:47:24.629Z,8.07
2023-03-11T02:49:52.413Z,6.93
2023-03-11T02:52:20.917Z,5.53
2023-03-11T02:54:48.453Z,6.35
2023-03-11T02:57:16.013Z,9.75
2023-03-11T02:59:43.578Z,5.13
2023-03-11T03:02:12.693Z,4.40
2023-03-11T03:04:40.229Z,5.18
2023-03-11T03:07:07.823Z,6.88
2023-03-11T03:09:36.257Z,6.25
2023-03-11T03:12:03.972Z,6.90
2023-03-11T03:14:31.588Z,5.10
2023-03-11T03:16:59.335Z,5.60
2023-03-11T03:19:28.352Z,5.90
2023-03-11T03:21:55.882Z,6.95
2023-03-11T03:24:23.506Z,5.40
2023-03-11T03:26:52.012Z,8.68
2023-03-11T03:29:19.597Z,9.77
2023-03-11T03:31:47.289Z,5.53
2023-03-11T03:34:14.871Z,6.88
2023-03-11T03:36:43.803Z,4.83
2023-03-11T03:39:11.382Z,5.45
2023-03-11T03:41:38.911Z,6.22
2023-03-11T03:44:06.549Z,4.75
2023-03-11T03:46:34.117Z,7.07
2023-03-11T03:49:01.691Z,6.53
2023-03-11T03:51:29.260Z,7.53
2023-03-11T03:53:58.341Z,7.15
2023-03-11T03:56:25.869Z,4.85
2023-03-11T03:58:54.251Z,9.15
2023-03-11T04:01:21.802Z,5.17
2023-03-11T04:03:49.569Z,6.85
2023-03-11T04:06:18.146Z,6.43
2023-03-11T04:08:45.735Z,7.47
2023-03-11T04:11:15.129Z,5.25
2023-03-11T04:13:44.707Z,5.30
2023-03-11T04:16:17.251Z,6.32
2023-03-11T04:18:44.872Z,6.43
2023-03-11T04:21:12.466Z,8.20
2023-03-11T04:23:40.006Z,5.22
2023-03-11T04:26:07.875Z,8.70
2023-03-11T04:28:36.815Z,6.18
2023-03-11T04:31:04.555Z,7.45
2023-03-11T04:33:32.236Z,6.05
2023-03-11T04:35:59.912Z,5.47
2023-03-11T04:38:27.525Z,5.17
2023-03-11T04:40:55.062Z,5.47
2023-03-11T04:43:22.608Z,5.70
2023-03-11T04:45:56.825Z,6.18
2023-03-11T04:48:24.736Z,5.53
2023-03-11T04:50:52.404Z,4.20
2023-03-11T04:53:20.001Z,7.55
2023-03-11T04:55:48.505Z,6.65
2023-03-11T04:58:16.143Z,7.35
2023-03-11T05:00:43.720Z,5.15
2023-03-11T05:03:12.688Z,5.83
2023-03-11T05:05:40.291Z,5.25
2023-03-11T05:08:07.907Z,5.03
2023-03-11T05:10:35.507Z,6.20
2023-03-11T05:13:03.143Z,3.67
2023-03-11T05:15:31.575Z,6.33
2023-03-11T05:17:59.166Z,6.10
2023-03-11T05:20:28.285Z,3.70
2023-03-11T05:22:55.891Z,4.53
2023-03-11T05:25:23.446Z,9.05
2023-03-11T05:27:51.129Z,4.47
2023-03-11T05:30:18.697Z,6.32
2023-03-11T05:32:46.313Z,5.15
2023-03-11T05:35:13.946Z,8.95
2023-03-11T05:37:42.883Z,5.95
2023-03-11T05:40:12.239Z,7.00
2023-03-11T05:42:41.319Z,4.40
2023-03-11T05:45:09.415Z,6.60
2023-03-11T05:47:36.960Z,7.30
2023-03-11T05:50:04.836Z,5.82
2023-03-11T05:52:33.959Z,4.77
2023-03-11T05:55:02.958Z,6.10
2023-03-11T05:57:30.590Z,3.45
2023-03-11T05:59:58.151Z,3.75
2023-03-11T06:02:25.799Z,8.30
2023-03-11T06:04:53.748Z,5.17
2023-03-11T06:07:21.444Z,5.60
2023-03-11T06:09:51.134Z,4.38
2023-03-11T06:12:20.092Z,4.15
2023-03-11T06:14:47.652Z,3.95
2023-03-11T06:17:15.256Z,4.93
2023-03-11T06:19:42.852Z,6.45
2023-03-11T06:22:10.573Z,3.58
2023-03-11T06:24:38.129Z,8.25
2023-03-11T06:27:05.877Z,4.00
2023-03-11T06:29:34.888Z,4.93
2023-03-11T06:32:02.531Z,4.68
2023-03-11T06:34:30.110Z,4.97
2023-03-11T06:36:59.415Z,3.78
2023-03-11T06:39:27.034Z,6.55
2023-03-11T06:41:54.628Z,7.20
2023-03-11T06:44:22.249Z,4.65
2023-03-11T06:46:51.209Z,5.57
2023-03-11T06:49:18.890Z,5.10
2023-03-11T06:51:46.494Z,3.80
2023-03-11T06:54:14.059Z,4.20
2023-03-11T06:56:41.640Z,5.68
2023-03-11T06:59:09.201Z,4.40
2023-03-11T07:01:37.030Z,6.30
2023-03-11T07:04:06.068Z,5.60
2023-03-11T07:06:33.740Z,5.07
2023-03-11T07:09:01.300Z,4.23
2023-03-11T07:11:29.334Z,4.03
2023-03-11T07:13:57.117Z,4.63
2023-03-11T07:16:26.147Z,4.90
2023-03-11T07:18:55.677Z,4.47
2023-03-11T07:21:24.918Z,5.07
2023-03-11T07:23:53.441Z,5.13
2023-03-11T07:26:20.991Z,4.32
2023-03-11T07:28:49.360Z,5.07
2023-03-11T07:31:17.853Z,4.07
2023-03-11T07:33:45.662Z,4.90
2023-03-11T07:36:14.324Z,4.10
2023-03-11T07:38:43.723Z,4.60
2023-03-11T07:41:12.201Z,4.70
2023-03-11T07:43:40.031Z,4.30
2023-03-11T07:46:09.003Z,3.93
2023-03-11T07:48:37.375Z,3.85
2023-03-11T07:51:05.655Z,3.92
2023-03-11T07:53:33.558Z,3.97
2023-03-11T07:56:02.861Z,3.78
2023-03-11T07:58:30.689Z,4.90
2023-03-11T08:00:58.335Z,5.38
2023-03-11T08:03:25.953Z,5.05
2023-03-11T08:05:53.746Z,6.03
2023-03-11T08:08:21.283Z,3.92
2023-03-11T08:10:48.845Z,3.50
2023-03-11T08:13:17.796Z,4.03
2023-03-11T08:15:45.365Z,3.70
2023-03-11T08:18:13.188Z,4.45
2023-03-11T08:20:40.804Z,3.72
2023-03-11T08:28:52.639Z,3.88
2023-03-11T08:31:20.874Z,4.70
2023-03-11T08:33:49.978Z,4.05
2023-03-11T08:36:18.008Z,5.20
2023-03-11T08:38:45.705Z,4.40
2023-03-11T08:41:13.567Z,5.38
2023-03-11T08:43:42.342Z,4.78
2023-03-11T08:46:15.247Z,4.75
2023-03-11T08:53:46.394Z,3.60
2023-03-11T08:56:12.632Z,4.13
2023-03-11T08:58:38.768Z,4.25
2023-03-11T09:01:04.980Z,3.97
2023-03-11T09:03:31.595Z,5.00
2023-03-11T09:05:58.158Z,4.78
2023-03-11T09:08:24.418Z,4.13
2023-03-11T09:13:43.519Z,4.17
2023-03-11T09:16:11.599Z,4.40
2023-03-11T09:18:37.748Z,4.38
2023-03-11T09:21:05.577Z,6.00
2023-03-11T09:23:33.132Z,4.65
2023-03-11T09:26:00.686Z,4.40
2023-03-11T09:28:28.735Z,4.43
2023-03-11T09:30:57.685Z,4.95
2023-03-11T09:33:25.269Z,5.32
2023-03-11T09:35:53.027Z,4.00
2023-03-11T09:38:20.608Z,6.10
2023-03-11T09:40:52.588Z,5.97
2023-03-11T09:43:27.269Z,4.10
2023-03-11T09:45:56.521Z,4.07
2023-03-11T09:48:30.061Z,4.90
2023-03-11T09:51:00.153Z,4.97
2023-03-11T09:53:30.617Z,4.85
2023-03-11T09:55:59.310Z,4.40
2023-03-11T09:58:31.632Z,4.55
2023-03-11T10:00:59.258Z,5.65
2023-03-11T10:03:31.763Z,4.07
2023-03-11T10:06:14.179Z,4.15
2023-03-11T10:08:44.178Z,3.72
2023-03-11T10:11:18.160Z,6.05
2023-03-11T10:13:47.312Z,4.43
2023-03-11T10:16:19.951Z,4.27
2023-03-11T10:18:53.609Z,4.30
2023-03-11T10:21:27.135Z,4.88
2023-03-11T10:24:01.582Z,4.43
2023-03-11T10:26:32.367Z,5.90
2023-03-11T10:29:01.335Z,3.60
2023-03-11T10:31:31.242Z,5.20
2023-03-11T10:34:03.158Z,4.00
2023-03-11T10:36:35.284Z,3.85
2023-03-11T10:39:03.439Z,4.28
2023-03-11T10:41:33.036Z,4.00
2023-03-11T10:44:03.457Z,4.03
2023-03-11T10:46:31.043Z,4.65
2023-03-11T10:49:00.012Z,4.28
2023-03-11T10:51:33.647Z,3.58
2023-03-11T10:54:02.334Z,3.63
2023-03-11T10:56:31.047Z,3.58
2023-03-11T10:58:59.470Z,3.70
2023-03-11T11:01:28.922Z,3.20
2023-03-11T11:03:57.628Z,3.65
2023-03-11T11:06:29.395Z,3.77
2023-03-11T11:09:16.043Z,4.05
2023-03-11T11:11:44.182Z,3.50
2023-03-11T11:14:11.768Z,5.45
2023-03-11T11:16:39.460Z,4.97
2023-03-11T11:19:10.337Z,5.07
2023-03-11T11:21:40.469Z,3.45
2023-03-11T11:24:13.240Z,2.88
2023-03-11T11:26:40.802Z,4.20
2023-03-11T11:29:13.818Z,3.60
2023-03-11T11:31:42.320Z,3.13
2023-03-11T11:34:25.460Z,2.40
2023-03-11T11:36:57.180Z,3.60
2023-03-11T11:39:26.049Z,2.92
2023-03-11T11:41:53.911Z,3.17
2023-03-11T11:44:23.291Z,3.23
2023-03-11T11:46:54.268Z,3.20
2023-03-11T11:49:22.999Z,3.15
2023-03-11T11:51:53.041Z,3.08
2023-03-11T11:54:25.756Z,4.07
2023-03-11T11:56:53.304Z,3.00
2023-03-11T11:59:23.038Z,3.38
2023-03-11T12:01:58.195Z,4.43
2023-03-11T12:04:39.950Z,4.22
2023-03-11T12:07:19.641Z,3.80
2023-03-11T12:09:51.928Z,3.73
2023-03-11T12:12:22.691Z,5.03
2023-03-11T12:14:53.979Z,3.15
2023-03-11T12:17:23.584Z,3.53
2023-03-11T12:19:53.657Z,2.60
2023-03-11T12:22:54.669Z,2.93
2023-03-11T12:25:29.972Z,4.47
2023-03-11T12:28:00.105Z,4.45
2023-03-11T12:30:29.701Z,5.53
2023-03-11T12:32:59.884Z,3.08
2023-03-11T12:35:28.512Z,3.40
2023-03-11T12:38:16.928Z,2.40
2023-03-11T12:40:49.627Z,3.15
2023-03-11T12:43:29.961Z,3.22
2023-03-11T12:45:59.382Z,4.57
2023-03-11T12:48:34.021Z,4.30
2023-03-11T12:51:01.999Z,3.35
2023-03-11T12:53:46.917Z,4.03
2023-03-11T12:56:26.732Z,3.15
2023-03-11T12:59:01.493Z,3.42
2023-03-11T13:01:38.981Z,3.97
2023-03-11T13:04:30.304Z,4.75
2023-03-11T13:07:13.837Z,3.38
2023-03-11T13:09:41.558Z,3.75
2023-03-11T13:12:23.984Z,3.33
2023-03-11T13:15:13.842Z,3.70
2023-03-11T13:17:42.043Z,3.65
2023-03-11T13:20:30.741Z,4.35
2023-03-11T13:23:16.326Z,2.60
2023-03-11T13:25:57.686Z,2.30
2023-03-11T13:28:33.003Z,3.80
2023-03-11T13:31:11.674Z,2.33
2023-03-11T13:33:46.249Z,3.20
2023-03-11T13:36:19.714Z,2.15
2023-03-11T13:38:57.689Z,2.75
2023-03-11T13:41:29.036Z,2.40
2023-03-11T13:43:58.787Z,2.92
2023-03-11T13:46:29.739Z,3.65
2023-03-11T13:49:01.670Z,4.07
2023-03-11T13:51:33.448Z,3.25
2023-03-11T13:54:03.510Z,2.93
2023-03-11T13:56:33.960Z,3.85
2023-03-11T13:59:16.546Z,3.80
2023-03-11T14:01:49.410Z,3.03
2023-03-11T14:04:20.008Z,3.50
2023-03-11T14:06:47.749Z,4.10
2023-03-11T14:09:20.030Z,3.90
2023-03-11T14:11:49.313Z,4.72
2023-03-11T14:14:31.454Z,4.72
2023-03-11T14:17:01.470Z,3.33
2023-03-11T14:19:29.673Z,3.90
2023-03-11T14:21:57.288Z,4.55
2023-03-11T14:24:26.256Z,5.00
2023-03-11T14:26:56.271Z,4.63
2023-03-11T14:29:28.883Z,5.65
2023-03-11T14:31:56.532Z,3.50
2023-03-11T14:34:25.369Z,4.50
2023-03-11T14:36:55.118Z,5.53
2023-03-11T14:39:23.680Z,4.30
2023-03-11T14:41:52.178Z,4.15
2023-03-11T14:44:21.236Z,4.80
2023-03-11T14:46:49.866Z,6.43
2023-03-11T14:49:20.062Z,3.05
2023-03-11T14:51:49.286Z,4.78
2023-03-11T14:54:18.644Z,6.22
2023-03-11T14:56:51.245Z,5.13
2023-03-11T14:59:23.335Z,4.93
2023-03-11T15:01:52.492Z,5.00
2023-03-11T15:04:27.458Z,5.00
2023-03-11T15:06:55.914Z,6.13
2023-03-11T15:09:24.179Z,2.80
2023-03-11T15:11:55.306Z,5.03
2023-03-11T15:14:24.240Z,3.05
2023-03-11T15:16:53.667Z,3.25
2023-03-11T15:19:34.471Z,2.15
2023-03-11T15:22:07.617Z,4.30
2023-03-11T15:24:35.299Z,2.90
2023-03-11T15:27:05.257Z,3.03
2023-03-11T15:29:33.661Z,2.00
2023-03-11T15:32:22.535Z,4.38
2023-03-11T15:35:00.122Z,3.43
2023-03-11T15:37:27.739Z,3.08
2023-03-11T15:39:58.464Z,2.33
2023-03-11T15:42:27.424Z,2.50
2023-03-11T15:45:13.116Z,3.55
2023-03-11T15:47:42.092Z,2.47
2023-03-11T15:50:24.962Z,2.60
2023-03-11T15:52:54.035Z,2.85
2023-03-11T15:55:21.660Z,2.70
2023-03-11T15:57:49.632Z,5.65
2023-03-11T16:00:19.346Z,4.10
2023-03-11T16:02:48.298Z,3.97
2023-03-11T16:05:17.489Z,3.05
2023-03-11T16:07:45.697Z,3.17
2023-03-11T16:10:14.292Z,3.95
2023-03-11T16:12:43.457Z,2.40
2023-03-11T16:15:17.556Z,4.60
2023-03-11T16:17:49.894Z,3.72
2023-03-11T16:20:19.406Z,2.97
2023-03-11T16:22:47.404Z,6.00
2023-03-11T16:25:19.323Z,2.83
2023-03-11T16:27:46.939Z,4.10
2023-03-11T16:30:16.374Z,3.78
2023-03-11T16:32:43.973Z,4.55
2023-03-11T16:35:11.927Z,3.25
2023-03-11T16:37:42.706Z,2.60
2023-03-11T16:40:13.465Z,1.27
2023-03-11T16:42:41.338Z,1.42
2023-03-11T16:45:09.122Z,3.17
2023-03-11T16:47:36.734Z,1.20
2023-03-11T16:50:04.511Z,0.90
2023-03-11T16:52:32.218Z,3.17
2023-03-11T16:55:01.200Z,1.13
2023-03-11T16:57:28.869Z,1.02
2023-03-11T16:59:56.699Z,2.15
2023-03-11T17:02:24.669Z,1.37
2023-03-11T17:04:52.499Z,1.38
2023-03-11T17:07:20.124Z,1.20
2023-03-11T17:09:47.711Z,1.65
2023-03-11T17:12:19.063Z,1.08
2023-03-11T17:14:46.947Z,1.83
2023-03-11T17:17:14.484Z,1.90
2023-03-11T17:19:42.037Z,1.45
2023-03-11T17:22:09.664Z,1.77
2023-03-11T17:24:37.260Z,2.10
2023-03-11T17:27:05.047Z,1.97
2023-03-11T17:29:34.764Z,2.97
2023-03-11T17:32:02.448Z,1.60
2023-03-11T17:34:30.178Z,1.80
2023-03-11T17:36:58.084Z,2.03
2023-03-11T17:39:25.634Z,2.73
2023-03-11T17:41:53.217Z,2.70
2023-03-11T17:44:20.775Z,2.55
2023-03-11T17:46:49.811Z,3.17
2023-03-11T17:49:17.427Z,1.88
2023-03-11T17:51:45.140Z,2.13
2023-03-11T17:54:12.669Z,4.30
2023-03-11T17:56:40.266Z,5.03
2023-03-11T17:59:07.833Z,2.03
2023-03-11T18:01:35.517Z,2.10
2023-03-11T18:04:05.071Z,1.97
2023-03-11T18:06:32.753Z,1.92
2023-03-11T18:09:00.532Z,5.05
2023-03-11T18:11:28.723Z,4.95
2023-03-11T18:13:56.835Z,3.22
2023-03-11T18:16:25.803Z,3.20
2023-03-11T18:18:54.942Z,3.63
2023-03-11T18:21:24.450Z,10.25
2023-03-11T18:23:53.349Z,2.13
2023-03-11T18:26:20.928Z,3.30
2023-03-11T18:28:48.563Z,3.07
2023-03-11T18:31:16.809Z,3.17
2023-03-11T18:33:48.023Z,5.00
2023-03-11T18:36:16.220Z,1.67
2023-03-11T18:38:45.510Z,1.25
2023-03-11T18:41:13.065Z,1.63
2023-03-11T18:43:40.693Z,1.85
2023-03-11T18:46:09.105Z,3.05
2023-03-11T18:48:36.803Z,2.25
2023-03-11T18:51:04.679Z,2.72
2023-03-11T18:53:32.309Z,5.43
2023-03-11T18:56:01.696Z,2.17
2023-03-11T18:58:29.383Z,3.97
2023-03-11T19:00:57.288Z,2.70
2023-03-11T19:03:24.848Z,4.80
2023-03-11T19:05:52.585Z,3.70
2023-03-11T19:08:20.553Z,2.10
2023-03-11T19:10:48.200Z,2.08
2023-03-11T19:13:19.322Z,3.50
2023-03-11T19:15:47.320Z,3.85
2023-03-11T19:18:15.225Z,3.67
2023-03-11T19:20:42.937Z,1.98
2023-03-11T19:23:11.367Z,3.47
2023-03-11T19:25:38.908Z,3.28
2023-03-11T19:28:06.557Z,3.22
2023-03-11T19:30:35.547Z,3.77
2023-03-11T19:33:03.109Z,2.95
2023-03-11T19:35:30.948Z,2.33
2023-03-11T19:37:59.279Z,2.70
2023-03-11T19:40:29.771Z,2.88
2023-03-11T19:42:59.032Z,2.00
2023-03-11T19:45:26.695Z,2.78
2023-03-11T19:48:00.120Z,2.05
2023-03-11T19:50:27.768Z,3.30
2023-03-11T19:52:55.335Z,3.28
2023-03-11T19:55:22.964Z,4.53
2023-03-11T19:57:50.841Z,1.83
2023-03-11T20:00:19.173Z,2.72
2023-03-11T20:02:46.917Z,3.85
2023-03-11T20:05:16.003Z,1.63
2023-03-11T20:07:43.720Z,2.47
2023-03-11T20:10:11.853Z,3.20
2023-03-11T20:12:41.438Z,4.55
2023-03-11T20:15:14.644Z,5.13
2023-03-11T20:17:42.374Z,2.03
2023-03-11T20:20:11.006Z,3.30
2023-03-11T20:22:40.003Z,2.88
2023-03-11T20:25:08.044Z,2.47
2023-03-11T20:27:35.610Z,3.67
2023-03-11T20:30:03.275Z,3.40
2023-03-11T20:32:31.035Z,5.20
2023-03-11T20:34:58.867Z,2.40
2023-03-11T20:37:26.731Z,4.45
2023-03-11T20:39:55.659Z,4.20
2023-03-11T20:42:23.342Z,3.25
2023-03-11T20:44:52.251Z,4.70
2023-03-11T20:47:20.126Z,4.85
2023-03-11T20:49:47.825Z,3.53
2023-03-11T20:52:15.456Z,8.27
2023-03-11T20:54:43.143Z,1.92
2023-03-11T20:57:12.108Z,6.83
2023-03-11T20:59:40.011Z,1.15
2023-03-11T21:02:08.049Z,3.20
2023-03-11T21:04:36.026Z,2.95
2023-03-11T21:07:03.608Z,2.63
2023-03-11T21:09:31.366Z,5.57
2023-03-11T21:11:58.942Z,3.28
2023-03-11T21:14:28.000Z,2.03
2023-03-11T21:16:55.601Z,5.65
2023-03-11T21:19:23.292Z,2.63
2023-03-11T21:21:51.089Z,5.07
2023-03-11T21:24:18.732Z,5.70
2023-03-11T21:26:46.419Z,6.18
2023-03-11T21:29:14.057Z,6.18
2023-03-11T21:31:43.125Z,8.93
2023-03-11T21:34:11.484Z,3.20
2023-03-11T21:36:39.178Z,4.03
2023-03-11T21:39:07.019Z,4.30
2023-03-11T21:41:35.012Z,3.55
2023-03-11T21:44:02.794Z,3.05
2023-03-11T21:46:31.521Z,3.63
2023-03-11T21:49:00.949Z,2.83
2023-03-11T21:51:28.586Z,2.95
2023-03-11T21:53:56.536Z,2.50
2023-03-11T21:56:24.262Z,2.92
2023-03-11T21:58:53.795Z,2.43
2023-03-11T22:01:21.495Z,3.63
2023-03-11T22:03:49.178Z,2.53
2023-03-11T22:06:18.244Z,2.90
2023-03-11T22:08:45.946Z,5.05
2023-03-11T22:11:17.680Z,2.83
2023-03-11T22:13:45.586Z,4.22
2023-03-11T22:16:13.287Z,2.85
2023-03-11T22:28:20.949Z,6.28
2023-03-11T22:30:48.550Z,4.85
2023-03-11T22:33:16.108Z,2.90
2023-03-11T22:35:49.637Z,5.78
2023-03-11T22:38:17.238Z,4.60
2023-03-11T22:40:44.825Z,2.83
2023-03-11T22:43:12.417Z,2.60
2023-03-11T22:45:41.576Z,3.65
2023-03-11T22:55:55.686Z,3.47
2023-03-11T22:58:21.831Z,5.32
2023-03-11T23:00:48.020Z,3.60
2023-03-11T23:03:14.341Z,4.73
2023-03-11T23:05:41.154Z,1.90
2023-03-11T23:08:07.592Z,4.00
2023-03-11T23:10:33.711Z,2.95
